Dati Storici

Data ora Umidita' aria (%) Temperatura aria (°C) Rad globale (W/m²) Gonioanemometro (°) Tacoanemometro (m/s) Pioggia (mm)
17-10-2018 13:50 76.2 % 19.307 257.466 90.363 1.682 0
17-10-2018 13:40 75.9 % 18.99 177.359 87.605 2.011 0
17-10-2018 13:30 75.8 % 19.001 189.407 98.247 1.509 0
17-10-2018 13:20 74.6 % 19.39 178.036 97.072 1.47 0
17-10-2018 13:10 74.3 % 19.332 184.714 46.706 0.993 0
17-10-2018 13:00 73.7 % 19.167 217.523 64.539 1.133 0
17-10-2018 12:50 71.5 % 19.479 242.343 138.873 1.221 0
17-10-2018 12:40 73 % 19.134 267.26 64.773 0.783 0
17-10-2018 12:30 70.2 % 19.139 192.003 82.518 2.073 0
17-10-2018 12:20 70.3 % 19.092 149.003 93.809 1.434 0
17-10-2018 12:10 69.8 % 18.826 185.382 78.042 1.72 0
17-10-2018 12:00 69.8 % 19.07 203.354 97.742 0.98 0
17-10-2018 11:50 68.6 % 19.439 240.644 51.967 1.558 0
17-10-2018 11:40 69.1 % 19.081 248.891 59.86 0.787 0
17-10-2018 11:30 69.3 % 18.878 266.24 40.7 2.04 0
17-10-2018 11:20 69.3 % 18.486 221.456 21.453 2.334 0
17-10-2018 11:10 68.9 % 18.183 214.62 38.693 3.689 0
17-10-2018 11:00 68.9 % 18.224 224.475 354.386 2.322 0
17-10-2018 10:50 69 % 18.215 245.828 76.481 1.136 0
17-10-2018 10:40 70.8 % 18.121 205.631 33.781 1.226 0

I dati sono presentati in modo automatico a scopo informativo. In seguito a verifica i dati possono subire modifiche o essere invalidati e non riportati negli archivi definitivi.